Terminal Aerodrome Forecast
Issued by NWS St Louis, MO

Home | Current Version | Previous Version | Text Only | Print | Product List | Glossary On
Versions: 1 2 3 4 5 6 7 8 9 10 11 12 13
124
FTUS43 KLSX 241426 AAA
TAFCOU
TAF AMD
KCOU 241426Z 2414/2512 19009KT P6SM VCTS BKN040CB
     FM241510 22009KT 5SM -TSRA BKN025CB
     FM241630 18007KT P6SM VCTS BKN050CB
     FM242200 17007KT P6SM SCT060 BKN150
     FM250800 16008KT 5SM -TSRA BR OVC040CB=

USA.gov is the U.S. government's official web portal to all federal, state and local government web resources and services.